PWSweather.com
Personal Weather Stations
Station Observations
MFGBD
Tower Mfg , BavendorfDE

Tower Mfg BavendorfDE

Lat: 47.752282, Lon: 9.549614

Elevation: 1525

Station Type: Wounder Weather Station

High Low Average
Temperature 42.2°F5.7°C 30.5°F-0.8°C 33.8°F1.0°C
Dew Point 39.0°F3.9°C 30.5°F-0.8°C 33.2°F0.7°C
Winds 6.9 mph 11.1 kmh Calm Calm 3.0 mph SSW4.8 kmh SSW
Wind Gusts 10.6 mph17.1 kmh -- 6.0 mph9.7 kmh
Humidity 100% 86% 98%
Pressure 30.09 in1019.0 mb 29.95 in1014.2 mb -
Precipitation 0.00 in0.0 mm - -
Hour Temp Dew Point Humidity Winds Wind Gusts Pressure Precip Precip Rate Daily Precip Total
12:18 AM 32.0°F0.0°C 32.0°F0.0°C 100% 5.0 mph SW8.0 kmh SW 8.1 mph13.0 kmh 30.09 in1019.0 mb 0.00 in0.0 mm 0.00 in0.0 mm 0.00 in0.0 mm
12:48 AM 32.0°F0.0°C 32.0°F0.0°C 100% 3.8 mph SSW6.1 kmh SSW 5.9 mph9.5 kmh 30.09 in1019.0 mb 0.00 in0.0 mm 0.00 in0.0 mm 0.00 in0.0 mm
01:18 AM 32.1°F0.1°C 32.1°F0.1°C 100% 3.2 mph SW5.1 kmh SW 7.1 mph11.4 kmh 30.09 in1019.0 mb 0.00 in0.0 mm 0.00 in0.0 mm 0.00 in0.0 mm
01:48 AM 32.1°F0.1°C 32.1°F0.1°C 100% 3.3 mph SSW5.3 kmh SSW 6.2 mph10.0 kmh 30.08 in1018.6 mb 0.00 in0.0 mm 0.00 in0.0 mm 0.00 in0.0 mm
02:18 AM 32.1°F0.1°C 32.1°F0.1°C 100% 4.0 mph SSW6.4 kmh SSW 8.7 mph14.0 kmh 30.09 in1019.0 mb 0.00 in0.0 mm 0.00 in0.0 mm 0.00 in0.0 mm
02:48 AM 32.0°F0.0°C 32.0°F0.0°C 100% 5.3 mph SSW8.5 kmh SSW 8.4 mph13.5 kmh 30.09 in1019.0 mb 0.00 in0.0 mm 0.00 in0.0 mm 0.00 in0.0 mm
03:18 AM 32.0°F0.0°C 32.0°F0.0°C 100% 3.4 mph SSW5.5 kmh SSW 7.8 mph12.6 kmh 30.08 in1018.6 mb 0.00 in0.0 mm 0.00 in0.0 mm 0.00 in0.0 mm
03:48 AM 31.6°F-0.2°C 31.6°F-0.2°C 100% 3.3 mph SSW5.3 kmh SSW 7.5 mph12.1 kmh 30.08 in1018.6 mb 0.00 in0.0 mm 0.00 in0.0 mm 0.00 in0.0 mm
04:18 AM 31.4°F-0.3°C 31.4°F-0.3°C 100% 5.6 mph S9.0 kmh S 7.8 mph12.6 kmh 30.08 in1018.6 mb 0.00 in0.0 mm 0.00 in0.0 mm 0.00 in0.0 mm
04:48 AM 30.9°F-0.6°C 30.9°F-0.6°C 100% 5.7 mph S9.2 kmh S 9.3 mph15.0 kmh 30.08 in1018.6 mb 0.00 in0.0 mm 0.00 in0.0 mm 0.00 in0.0 mm
05:18 AM 30.7°F-0.7°C 30.7°F-0.7°C 100% 6.3 mph S10.1 kmh S 8.4 mph13.5 kmh 30.08 in1018.6 mb 0.00 in0.0 mm 0.00 in0.0 mm 0.00 in0.0 mm
05:48 AM 30.7°F-0.7°C 30.7°F-0.7°C 100% 4.8 mph S7.7 kmh S 6.2 mph10.0 kmh 30.08 in1018.6 mb 0.00 in0.0 mm 0.00 in0.0 mm 0.00 in0.0 mm
06:18 AM 30.7°F-0.7°C 30.7°F-0.7°C 100% 4.0 mph S6.4 kmh S 5.9 mph9.5 kmh 30.07 in1018.3 mb 0.00 in0.0 mm 0.00 in0.0 mm 0.00 in0.0 mm
06:48 AM 30.5°F-0.8°C 30.5°F-0.8°C 100% 2.6 mph S4.2 kmh S 5.0 mph8.0 kmh 30.08 in1018.6 mb 0.00 in0.0 mm 0.00 in0.0 mm 0.00 in0.0 mm
07:18 AM 30.5°F-0.8°C 30.5°F-0.8°C 100% 4.4 mph S7.1 kmh S 8.1 mph13.0 kmh 30.08 in1018.6 mb 0.00 in0.0 mm 0.00 in0.0 mm 0.00 in0.0 mm
07:48 AM 30.7°F-0.7°C 30.7°F-0.7°C 100% 2.7 mph S4.3 kmh S 8.1 mph13.0 kmh 30.08 in1018.6 mb 0.00 in0.0 mm 0.00 in0.0 mm 0.00 in0.0 mm
08:18 AM 30.7°F-0.7°C 30.7°F-0.7°C 100% 4.9 mph S7.9 kmh S 8.7 mph14.0 kmh 30.08 in1018.6 mb 0.00 in0.0 mm 0.00 in0.0 mm 0.00 in0.0 mm
08:48 AM 31.2°F-0.4°C 31.2°F-0.4°C 100% 4.0 mph S6.4 kmh S 6.5 mph10.5 kmh 30.08 in1018.6 mb 0.00 in0.0 mm 0.00 in0.0 mm 0.00 in0.0 mm
09:18 AM 32.0°F0.0°C 32.0°F0.0°C 100% 4.6 mph S7.4 kmh S 6.5 mph10.5 kmh 30.08 in1018.6 mb 0.00 in0.0 mm 0.00 in0.0 mm 0.00 in0.0 mm
09:48 AM 32.9°F0.5°C 32.9°F0.5°C 100% 4.2 mph SSW6.8 kmh SSW 6.2 mph10.0 kmh 30.09 in1019.0 mb 0.00 in0.0 mm 0.00 in0.0 mm 0.00 in0.0 mm
10:19 AM 34.1°F1.2°C 34.1°F1.2°C 100% 4.2 mph SSW6.8 kmh SSW 7.5 mph12.1 kmh 30.09 in1019.0 mb 0.00 in0.0 mm 0.00 in0.0 mm 0.00 in0.0 mm
10:49 AM 36.1°F2.3°C 36.1°F2.3°C 100% 4.9 mph S7.9 kmh S 7.8 mph12.6 kmh 30.08 in1018.6 mb 0.00 in0.0 mm 0.00 in0.0 mm 0.00 in0.0 mm
11:19 AM 36.8°F2.7°C 36.8°F2.7°C 100% 4.4 mph S7.1 kmh S 9.3 mph15.0 kmh 30.06 in1017.9 mb 0.00 in0.0 mm 0.00 in0.0 mm 0.00 in0.0 mm
11:49 AM 38.1°F3.4°C 37.9°F3.3°C 99% 6.5 mph S10.5 kmh S 9.6 mph15.4 kmh 30.06 in1017.9 mb 0.00 in0.0 mm 0.00 in0.0 mm 0.00 in0.0 mm
12:19 PM 38.3°F3.5°C 37.7°F3.2°C 97% 5.1 mph SSW8.2 kmh SSW 8.7 mph14.0 kmh 30.05 in1017.6 mb 0.00 in0.0 mm 0.00 in0.0 mm 0.00 in0.0 mm
12:49 PM 39.9°F4.4°C 38.7°F3.7°C 95% 5.8 mph S9.3 kmh S 8.1 mph13.0 kmh 30.03 in1016.9 mb 0.00 in0.0 mm 0.00 in0.0 mm 0.00 in0.0 mm
01:19 PM 41.1°F5.1°C 39.0°F3.9°C 92% 5.3 mph S8.5 kmh S 9.0 mph14.5 kmh 30.02 in1016.6 mb 0.00 in0.0 mm 0.00 in0.0 mm 0.00 in0.0 mm
01:49 PM 41.9°F5.5°C 38.7°F3.7°C 88% 6.9 mph S11.1 kmh S 10.6 mph17.1 kmh 30.01 in1016.3 mb 0.00 in0.0 mm 0.00 in0.0 mm 0.00 in0.0 mm
02:19 PM 42.2°F5.7°C 38.7°F3.7°C 87% 5.1 mph S8.2 kmh S 7.8 mph12.6 kmh 29.99 in1015.6 mb 0.00 in0.0 mm 0.00 in0.0 mm 0.00 in0.0 mm
02:49 PM 41.5°F5.3°C 37.8°F3.2°C 86% 5.0 mph S8.0 kmh S 9.0 mph14.5 kmh 29.98 in1015.2 mb 0.00 in0.0 mm 0.00 in0.0 mm 0.00 in0.0 mm
03:19 PM 40.8°F4.9°C 37.2°F2.9°C 86% 3.0 mph S4.8 kmh S 7.8 mph12.6 kmh 29.99 in1015.6 mb 0.00 in0.0 mm 0.00 in0.0 mm 0.00 in0.0 mm
03:49 PM 39.7°F4.3°C 36.2°F2.3°C 87% 0.9 mph SE1.4 kmh SE 3.7 mph6.0 kmh 29.98 in1015.2 mb 0.00 in0.0 mm 0.00 in0.0 mm 0.00 in0.0 mm
04:19 PM 35.6°F2.0°C 32.7°F0.4°C 89% Calm Calm -- 29.98 in1015.2 mb 0.00 in0.0 mm 0.00 in0.0 mm 0.00 in0.0 mm
04:49 PM 32.7°F0.4°C 31.0°F-0.6°C 93% Calm Calm -- 29.97 in1014.9 mb 0.00 in0.0 mm 0.00 in0.0 mm 0.00 in0.0 mm
05:19 PM 32.0°F0.0°C 31.1°F-0.5°C 96% 0.7 mph WSW1.1 kmh WSW 1.5 mph2.4 kmh 29.97 in1014.9 mb 0.00 in0.0 mm 0.00 in0.0 mm 0.00 in0.0 mm
05:31 PM 32.3°F0.2°C 31.8°F-0.1°C 97% Calm Calm 1.8 mph2.9 kmh 29.97 in1014.9 mb 0.00 in0.0 mm 0.00 in0.0 mm 0.00 in0.0 mm
06:01 PM 31.8°F-0.1°C 31.5°F-0.3°C 99% Calm Calm -- 29.96 in1014.6 mb 0.00 in0.0 mm 0.00 in0.0 mm 0.00 in0.0 mm
06:32 PM 31.2°F-0.4°C 31.2°F-0.4°C 99% Calm Calm -- 29.96 in1014.6 mb 0.00 in0.0 mm 0.00 in0.0 mm 0.00 in0.0 mm
07:02 PM 31.1°F-0.5°C 31.1°F-0.5°C 100% Calm Calm -- 29.96 in1014.6 mb 0.00 in0.0 mm 0.00 in0.0 mm 0.00 in0.0 mm
07:32 PM 30.5°F-0.8°C 30.5°F-0.8°C 100% Calm Calm -- 29.96 in1014.6 mb 0.00 in0.0 mm 0.00 in0.0 mm 0.00 in0.0 mm
08:02 PM 30.9°F-0.6°C 30.9°F-0.6°C 100% Calm Calm -- 29.95 in1014.2 mb 0.00 in0.0 mm 0.00 in0.0 mm 0.00 in0.0 mm
08:32 PM 31.4°F-0.3°C 31.4°F-0.3°C 100% 1.2 mph WSW1.9 kmh WSW 2.1 mph3.4 kmh 29.95 in1014.2 mb 0.00 in0.0 mm 0.00 in0.0 mm 0.00 in0.0 mm
09:02 PM 32.7°F0.4°C 32.7°F0.4°C 100% Calm Calm 2.1 mph3.4 kmh 29.95 in1014.2 mb 0.00 in0.0 mm 0.00 in0.0 mm 0.00 in0.0 mm
09:32 PM 33.0°F0.6°C 33.0°F0.6°C 100% 0.9 mph S1.4 kmh S 3.1 mph5.0 kmh 29.95 in1014.2 mb 0.00 in0.0 mm 0.00 in0.0 mm 0.00 in0.0 mm
10:02 PM 32.5°F0.3°C 32.5°F0.3°C 100% Calm Calm 2.8 mph4.5 kmh 29.95 in1014.2 mb 0.00 in0.0 mm 0.00 in0.0 mm 0.00 in0.0 mm
10:32 PM 34.1°F1.2°C 34.1°F1.2°C 100% 1.6 mph SW2.6 kmh SW 3.1 mph5.0 kmh 29.95 in1014.2 mb 0.00 in0.0 mm 0.00 in0.0 mm 0.00 in0.0 mm
11:02 PM 35.0°F1.7°C 35.0°F1.7°C 100% 1.2 mph SW1.9 kmh SW 2.1 mph3.4 kmh 29.95 in1014.2 mb 0.00 in0.0 mm 0.00 in0.0 mm 0.00 in0.0 mm
11:32 PM 35.0°F1.7°C 34.9°F1.6°C 99% Calm Calm 3.1 mph5.0 kmh 29.95 in1014.2 mb 0.00 in0.0 mm 0.00 in0.0 mm 0.00 in0.0 mm